Time;durP1;ratioP1;P1;durP2;ratioP2;P2;SDS_P1;SDS_P2;PMS_P1;PMS_P2;Temp;Humidity;BMP_temperature;BMP_pressure;BME280_temperature;BME280_humidity;BME280_pressure;Samples;Min_cycle;Max_cycle;Signal;HPM_P1;HPM_P2
2021/11/20 00:00:45;;;;;;;5.43;3.60;;;;;;;8.60;72.26;100396.75;126322;1099;104648;-81
2021/11/20 00:03:18;;;;;;;6.83;3.47;;;;;;;8.61;71.69;100391.59;126299;1099;104153;-81
2021/11/20 00:05:50;;;;;;;4.90;3.20;;;;;;;8.63;72.37;100386.42;126349;1099;104146;-81
2021/11/20 00:08:21;;;;;;;6.90;3.17;;;;;;;8.63;71.93;100392.57;126291;1099;104130;-81
2021/11/20 00:11:00;;;;;;;4.43;3.10;;;;;;;8.64;71.96;100390.84;126361;1099;104171;-81
2021/11/20 00:13:29;;;;;;;5.90;3.17;;;;;;;8.64;71.91;100396.95;126214;1098;104140;-82
2021/11/20 00:16:00;;;;;;;4.27;3.03;;;;;;;8.64;71.85;100393.45;126348;1099;104149;-80
2021/11/20 00:18:31;;;;;;;4.73;3.20;;;;;;;8.67;72.89;100384.85;126314;1099;104178;-80
2021/11/20 00:21:05;;;;;;;4.83;3.20;;;;;;;8.66;72.35;100380.44;126287;1099;104309;-80
2021/11/20 00:23:38;;;;;;;6.55;3.12;;;;;;;8.67;72.28;100390.08;126287;1099;104310;-81
2021/11/20 00:26:10;;;;;;;6.47;3.50;;;;;;;8.67;72.30;100382.23;126177;1099;104143;-81
2021/11/20 00:29:03;;;;;;;5.40;3.07;;;;;;;8.69;72.31;100386.67;125466;1099;104303;-81
2021/11/20 00:31:37;;;;;;;6.83;3.42;;;;;;;8.71;72.03;100381.51;125435;1100;104162;-82
2021/11/20 00:34:08;;;;;;;;;;;;;;;8.71;72.91;100371.96;126108;1099;104624;-82
2021/11/20 00:36:37;;;;;;;4.90;2.95;;;;;;;8.71;72.47;100371.96;126241;1099;104143;-82
2021/11/20 00:39:09;;;;;;;5.90;2.83;;;;;;;8.71;72.62;100369.34;126211;1099;104188;-82
2021/11/20 00:41:38;;;;;;;5.33;2.83;;;;;;;8.71;72.08;100363.20;125438;1099;104185;-83
2021/11/20 00:44:09;;;;;;;3.73;2.60;;;;;;;8.71;72.29;100371.05;126183;1099;104296;-82
2021/11/20 00:46:37;;;;;;;2.87;2.43;;;;;;;8.69;73.03;100363.14;126171;1099;104149;-82
2021/11/20 00:49:07;;;;;;;5.67;2.70;;;;;;;8.69;73.21;100365.75;126206;1099;104159;-82
2021/11/20 00:51:38;;;;;;;4.97;2.83;;;;;;;8.69;72.52;100359.64;126213;1099;104300;-82
2021/11/20 00:54:08;;;;;;;5.33;2.60;;;;;;;8.69;72.89;100354.41;126141;1099;104149;-83
2021/11/20 00:56:41;;;;;;;4.17;2.47;;;;;;;8.67;72.63;100346.50;126193;1099;104409;-83
2021/11/20 00:59:13;;;;;;;3.57;2.23;;;;;;;8.68;73.28;100339.53;126364;1099;104307;-81
2021/11/20 01:01:50;;;;;;;3.37;2.30;;;;;;;8.69;73.45;100334.36;126296;1099;104223;-82
2021/11/20 01:04:24;;;;;;;3.80;2.50;;;;;;;8.70;73.48;100336.16;126255;1099;104602;-82
2021/11/20 01:06:57;;;;;;;2.37;1.97;;;;;;;8.69;73.59;100334.36;126285;1099;104150;-83
2021/11/20 01:09:32;;;;;;;2.92;2.35;;;;;;;8.68;73.26;100329.06;126338;1099;104146;-83
2021/11/20 01:12:01;;;;;;;;;;;;;;;8.67;73.64;100330.80;126353;1099;104146;-82
2021/11/20 01:14:40;;;;;;;3.60;2.00;;;;;;;8.67;73.21;100324.69;126316;1099;105608;-81
2021/11/20 01:17:13;;;;;;;2.53;1.93;;;;;;;8.69;73.11;100325.63;126327;1099;104153;-81
2021/11/20 01:19:42;;;;;;;2.10;1.80;;;;;;;8.70;73.42;100327.42;126269;1099;104267;-82
2021/11/20 01:22:30;;;;;;;2.33;2.00;;;;;;;8.70;73.28;100330.05;126311;1099;104163;-82
2021/11/20 01:25:17;;;;;;;2.40;1.93;;;;;;;8.73;73.16;100323.20;126256;1099;104438;-83
2021/11/20 01:28:11;;;;;;;2.20;1.70;;;;;;;8.75;73.07;100320.65;126331;1099;104201;-82
2021/11/20 01:30:57;;;;;;;2.63;1.97;;;;;;;8.76;73.43;100314.59;126326;1099;104194;-80
2021/11/20 01:33:36;;;;;;;2.80;1.70;;;;;;;8.77;73.26;100321.59;126329;1098;104441;-81
2021/11/20 01:36:10;;;;;;;2.13;1.83;;;;;;;8.78;73.63;100316.42;126309;1099;104726;-83
2021/11/20 01:38:40;;;;;;;2.13;1.60;;;;;;;8.79;73.74;100323.45;126339;1099;104316;-83
2021/11/20 01:41:16;;;;;;;2.07;1.53;;;;;;;8.80;74.07;100311.25;126357;1099;104201;-81
2021/11/20 01:44:17;;;;;;;3.40;2.00;;;;;;;8.81;73.71;100320.89;126317;1099;104144;-82
2021/11/20 01:46:50;;;;;;;1.98;1.77;;;;;;;8.83;73.56;100313.98;126340;1099;104277;-82
2021/11/20 01:49:24;;;;;;;2.13;1.80;;;;;;;8.84;74.52;100310.55;126370;1099;104172;-82
2021/11/20 01:52:01;;;;;;;2.47;2.00;;;;;;;8.86;74.15;100308.88;126314;1098;104146;-82
2021/11/20 01:54:40;;;;;;;2.47;1.80;;;;;;;8.88;74.43;100315.09;126295;1099;104303;-82
2021/11/20 01:57:38;;;;;;;2.80;1.70;;;;;;;8.91;73.82;100314.29;126359;1099;109744;-83
2021/11/20 02:00:16;;;;;;;3.20;2.43;;;;;;;8.94;74.32;100303.95;126332;1099;104146;-82
2021/11/20 02:03:04;;;;;;;3.27;2.20;;;;;;;8.95;74.17;100314.47;126364;1099;104289;-82
2021/11/20 02:05:49;;;;;;;4.63;2.33;;;;;;;8.97;74.44;100299.71;126242;1099;105475;-83
2021/11/20 02:08:29;;;;;;;5.03;3.17;;;;;;;8.99;74.06;100300.69;126295;1099;104203;-81
2021/11/20 02:11:06;;;;;;;5.27;2.93;;;;;;;9.00;74.16;100297.22;126309;1099;104165;-82
2021/11/20 02:13:37;;;;;;;4.37;3.00;;;;;;;9.04;74.07;100306.09;126363;1099;104344;-81
2021/11/20 02:16:13;;;;;;;5.63;3.07;;;;;;;9.07;74.12;100302.69;126264;1099;104621;-82
2021/11/20 02:18:47;;;;;;;6.07;3.30;;;;;;;9.08;74.29;100304.48;126315;1099;104168;-83
2021/11/20 02:21:28;;;;;;;4.53;3.25;;;;;;;9.09;74.32;100317.63;126333;1097;104216;-82
2021/11/20 02:23:59;;;;;;;;;;;;;;;9.10;74.55;100313.27;126356;1099;104159;-83
2021/11/20 02:26:29;;;;;;;5.53;3.50;;;;;;;9.07;74.63;100300.06;126338;1098;104197;-83
2021/11/20 02:29:07;;;;;;;6.87;3.53;;;;;;;9.04;74.89;100316.57;126352;1099;104284;-84
2021/11/20 02:31:57;;;;;;;6.20;3.60;;;;;;;9.00;74.68;100314.66;126270;1099;104146;-82
2021/11/20 02:34:43;;;;;;;7.37;4.23;;;;;;;8.96;75.76;100313.65;126349;1099;104271;-83
2021/11/20 02:37:12;;;;;;;8.33;4.50;;;;;;;8.92;75.22;100311.73;126294;1099;104254;-83
2021/11/20 02:39:45;;;;;;;8.70;5.00;;;;;;;8.90;74.99;100310.80;126352;1099;104143;-82
2021/11/20 02:42:17;;;;;;;10.60;4.83;;;;;;;8.90;75.66;100310.80;126249;1099;104137;-83
2021/11/20 02:44:57;;;;;;;11.27;5.37;;;;;;;8.90;75.62;100309.91;126313;1099;104425;-82
2021/11/20 02:47:31;;;;;;;10.00;5.07;;;;;;;8.89;76.28;100315.97;126288;1098;104216;-83
2021/11/20 02:50:03;;;;;;;11.47;5.40;;;;;;;8.88;76.53;100315.09;126283;1099;104306;-83
2021/11/20 02:52:34;;;;;;;9.20;5.10;;;;;;;8.87;76.10;100315.02;126296;1099;104280;-82
2021/11/20 02:55:07;;;;;;;9.70;5.00;;;;;;;8.87;76.88;100318.52;126350;1098;104268;-82
2021/11/20 02:57:39;;;;;;;10.73;5.37;;;;;;;8.85;76.24;100317.58;126307;1099;104383;-82
2021/11/20 03:00:14;;;;;;;9.40;5.43;;;;;;;8.83;75.93;100313.98;126278;1098;104166;-83
2021/11/20 03:02:45;;;;;;;10.73;5.13;;;;;;;8.81;76.49;100313.92;126323;1099;104217;-83
2021/11/20 03:05:14;;;;;;;11.93;5.10;;;;;;;8.80;76.42;100308.63;126306;1099;104165;-83
2021/11/20 03:07:42;;;;;;;12.33;5.10;;;;;;;8.81;76.97;100302.58;126317;1099;105575;-81
2021/11/20 03:10:12;;;;;;;10.90;5.07;;;;;;;8.80;76.75;100296.47;126283;1099;104201;-82
2021/11/20 03:12:40;;;;;;;10.37;5.67;;;;;;;8.79;76.22;100288.55;126367;1099;104219;-82
2021/11/20 03:15:10;;;;;;;12.87;6.10;;;;;;;8.83;76.51;100298.28;126361;1097;104582;-83
2021/11/20 03:17:45;;;;;;;12.27;5.63;;;;;;;8.85;76.12;100296.64;126316;1099;104140;-83
2021/11/20 03:20:18;;;;;;;10.13;5.10;;;;;;;8.88;76.14;100288.92;126280;1099;104284;-81
2021/11/20 03:22:51;;;;;;;12.37;5.93;;;;;;;8.91;76.63;100289.03;126243;1099;104194;-81
2021/11/20 03:25:20;;;;;;;11.90;5.73;;;;;;;8.94;76.83;100277.77;126309;1099;104153;-82
2021/11/20 03:27:50;;;;;;;12.53;6.17;;;;;;;8.99;77.00;100273.60;126216;1099;104197;-83
2021/11/20 03:30:19;;;;;;;12.67;6.37;;;;;;;9.02;76.85;100278.07;126368;1099;104150;-83
2021/11/20 03:32:48;;;;;;;15.37;7.20;;;;;;;9.07;76.96;100281.75;126334;1099;104704;-83
2021/11/20 03:35:20;;;;;;;14.40;6.77;;;;;;;9.09;76.98;100280.98;126284;1099;104270;-82
2021/11/20 03:37:52;;;;;;;14.23;6.63;;;;;;;9.12;78.18;100277.60;126249;1099;104304;-82
2021/11/20 03:40:22;;;;;;;13.47;6.77;;;;;;;9.13;77.13;100281.98;126321;1099;104261;-83
2021/11/20 03:42:52;;;;;;;16.23;7.03;;;;;;;9.15;78.27;100275.98;126320;1099;104168;-82
2021/11/20 03:45:23;;;;;;;15.13;7.57;;;;;;;9.16;77.17;100277.78;126266;1099;104188;-83
2021/11/20 03:47:52;;;;;;;14.77;6.77;;;;;;;9.20;77.83;100272.66;126298;1098;104255;-82
2021/11/20 03:50:22;;;;;;;15.23;6.90;;;;;;;9.23;77.64;100271.03;126327;1098;104255;-82
2021/11/20 03:52:53;;;;;;;15.93;7.23;;;;;;;9.28;77.57;100272.09;126346;1099;104175;-83
2021/11/20 03:55:24;;;;;;;16.33;7.00;;;;;;;9.32;78.93;100273.12;126341;1099;104328;-83
2021/11/20 03:57:53;;;;;;;14.45;6.60;;;;;;;9.34;79.07;100264.46;126328;1099;104226;-84
2021/11/20 04:00:24;;;;;;;13.50;6.57;;;;;;;9.35;78.50;100255.78;126285;1099;104140;-83
2021/11/20 04:02:53;;;;;;;15.73;7.07;;;;;;;9.36;79.43;100246.19;126294;1099;104303;-83
2021/11/20 04:05:24;;;;;;;13.67;6.53;;;;;;;9.35;79.17;100254.91;126345;1099;104146;-83
2021/11/20 04:07:53;;;;;;;15.47;6.97;;;;;;;9.35;79.54;100249.66;126311;1099;104172;-83
2021/11/20 04:10:22;;;;;;;14.73;6.60;;;;;;;9.37;79.12;100252.34;126346;1099;104251;-83
2021/11/20 04:12:50;;;;;;;15.73;6.37;;;;;;;9.38;79.69;100252.39;126323;1099;104153;-83
2021/11/20 04:15:22;;;;;;;14.00;5.90;;;;;;;9.42;80.16;100253.39;126310;1099;104208;-83
2021/11/20 04:17:51;;;;;;;11.33;5.63;;;;;;;9.44;79.96;100246.47;126304;1099;104153;-82
2021/11/20 04:20:23;;;;;;;13.03;5.43;;;;;;;9.48;79.87;100254.49;126369;1099;104150;-83
2021/11/20 04:22:52;;;;;;;13.03;5.87;;;;;;;9.53;80.35;100254.66;126297;1099;104143;-83
2021/11/20 04:25:23;;;;;;;10.93;5.60;;;;;;;9.57;79.56;100251.32;126303;1099;104264;-82
2021/11/20 04:27:56;;;;;;;10.90;5.03;;;;;;;9.62;80.48;100243.63;126237;1099;104274;-84
2021/11/20 04:30:36;;;;;;;10.37;4.87;;;;;;;9.65;80.43;100246.36;126305;1099;104152;-84
2021/11/20 04:33:05;;;;;;;9.33;4.37;;;;;;;9.70;80.03;100239.54;126382;1099;104210;-83
2021/11/20 04:35:35;;;;;;;9.63;4.63;;;;;;;9.74;79.31;100243.14;126348;1098;104631;-84
2021/11/20 04:38:06;;;;;;;9.23;4.57;;;;;;;9.79;79.68;100246.84;126274;1099;104274;-83
2021/11/20 04:40:35;;;;;;;8.87;4.53;;;;;;;9.82;79.39;100250.45;126337;1099;105303;-84
2021/11/20 04:43:04;;;;;;;8.17;4.50;;;;;;;9.88;79.29;100247.16;126375;1099;104149;-83
2021/11/20 04:45:34;;;;;;;9.73;4.50;;;;;;;9.92;79.22;100249.03;126298;1099;104146;-83
2021/11/20 04:48:06;;;;;;;9.43;4.50;;;;;;;9.96;79.09;100239.56;126328;1099;104271;-83
2021/11/20 04:50:44;;;;;;;9.63;4.83;;;;;;;9.99;78.77;100229.18;126263;1099;109423;-83
2021/11/20 04:53:13;;;;;;;8.93;4.47;;;;;;;9.99;79.53;100219.58;126333;1099;104201;-83
2021/11/20 04:55:41;;;;;;;10.27;4.10;;;;;;;10.02;78.80;100227.55;126324;1098;104205;-82
2021/11/20 04:58:12;;;;;;;7.93;4.13;;;;;;;10.02;78.64;100224.92;126312;1099;104271;-83
2021/11/20 05:00:45;;;;;;;10.60;4.67;;;;;;;10.04;78.65;100230.22;126297;1099;104306;-84
2021/11/20 05:03:19;;;;;;;8.13;4.50;;;;;;;10.06;78.77;100221.54;126240;1099;104399;-83
2021/11/20 05:05:49;;;;;;;8.73;4.53;;;;;;;10.08;78.53;100232.99;126197;1099;104261;-83
2021/11/20 05:08:22;;;;;;;7.37;4.03;;;;;;;10.11;78.39;100223.44;125452;1099;104187;-82
2021/11/20 05:10:52;;;;;;;;;;;;;;;10.13;78.46;100227.91;126148;1099;104198;-83
2021/11/20 05:13:24;;;;;;;10.23;4.80;;;;;;;10.13;78.14;100232.23;125447;1099;104398;-82
2021/11/20 05:15:56;;;;;;;9.77;5.13;;;;;;;10.14;78.42;100234.03;125401;1099;104293;-83
2021/11/20 05:18:26;;;;;;;10.53;4.60;;;;;;;10.14;78.38;100237.53;125441;1099;104408;-83
2021/11/20 05:21:10;;;;;;;8.07;4.17;;;;;;;10.18;77.99;100238.55;125459;1099;104141;-82
2021/11/20 05:23:38;;;;;;;7.63;4.10;;;;;;;10.21;78.12;100238.64;125436;1099;104425;-82
2021/11/20 05:26:20;;;;;;;9.60;4.60;;;;;;;10.24;77.88;100242.25;126213;1099;104401;-82
2021/11/20 05:29:01;;;;;;;8.90;4.43;;;;;;;10.27;77.83;100249.34;126159;1099;104157;-84
2021/11/20 05:31:31;;;;;;;9.40;3.77;;;;;;;10.31;77.55;100252.94;126135;1099;101961;-83
2021/11/20 05:34:00;;;;;;;6.83;3.50;;;;;;;10.33;77.87;100253.91;126260;1099;104288;-83
2021/11/20 05:36:31;;;;;;;5.67;3.63;;;;;;;10.39;77.75;100255.02;126225;1099;104319;-83
2021/11/20 05:39:00;;;;;;;5.53;3.30;;;;;;;10.41;77.55;100253.33;126375;1098;104225;-82
2021/11/20 05:41:30;;;;;;;6.55;3.60;;;;;;;10.47;77.33;100262.22;126274;1099;104140;-83
2021/11/20 05:43:59;;;;;;;5.97;3.43;;;;;;;10.50;77.61;100264.95;126366;1099;104216;-83
2021/11/20 05:46:46;;;;;;;6.70;3.10;;;;;;;10.54;77.31;100267.72;126372;1099;104146;-83
2021/11/20 05:49:16;;;;;;;5.03;3.10;;;;;;;10.59;77.12;100270.48;126352;1099;104271;-82
2021/11/20 05:51:48;;;;;;;4.33;2.83;;;;;;;10.65;77.22;100259.31;126233;1098;104274;-82
2021/11/20 05:54:17;;;;;;;4.90;2.90;;;;;;;10.70;76.58;100273.45;126293;1099;104286;-83
2021/11/20 05:56:48;;;;;;;5.33;2.90;;;;;;;10.73;76.77;100258.69;126349;1098;104146;-82
2021/11/20 05:59:19;;;;;;;4.97;3.20;;;;;;;10.75;76.14;100270.14;126298;1099;104149;-83
2021/11/20 06:01:47;;;;;;;5.40;2.80;;;;;;;10.79;76.19;100273.75;126320;1099;104271;-84
2021/11/20 06:04:19;;;;;;;4.80;2.70;;;;;;;10.84;76.35;100274.77;126352;1099;104201;-83
2021/11/20 06:06:52;;;;;;;5.43;2.87;;;;;;;10.89;76.19;100282.79;126314;1099;104284;-83
2021/11/20 06:09:20;;;;;;;7.47;3.20;;;;;;;10.92;75.60;100286.42;126372;1099;104155;-83
2021/11/20 06:11:49;;;;;;;6.07;2.90;;;;;;;10.94;74.73;100291.72;126202;1099;104370;-84
2021/11/20 06:14:17;;;;;;;7.40;3.00;;;;;;;10.96;75.04;100280.40;126333;1098;104328;-83
2021/11/20 06:16:47;;;;;;;4.80;2.70;;;;;;;10.99;74.36;100291.86;126288;1099;104146;-85
2021/11/20 06:19:16;;;;;;;5.50;2.50;;;;;;;11.04;74.50;100285.00;126334;1099;104325;-81
2021/11/20 06:21:44;;;;;;;4.43;2.70;;;;;;;11.07;74.96;100291.23;126210;1099;104226;-82
2021/11/20 06:24:16;;;;;;;5.30;2.17;;;;;;;11.11;74.83;100286.95;126301;1099;104146;-83
2021/11/20 06:26:46;;;;;;;5.40;3.00;;;;;;;11.12;74.63;100288.74;126297;1099;104149;-82
2021/11/20 06:29:17;;;;;;;7.07;2.63;;;;;;;11.14;74.37;100293.21;126351;1099;104149;-83
2021/11/20 06:31:48;;;;;;;7.00;2.90;;;;;;;11.17;73.49;100296.77;126250;1099;104297;-82
2021/11/20 06:34:26;;;;;;;5.33;2.47;;;;;;;11.22;73.44;100295.16;126337;1099;104190;-82
2021/11/20 06:37:13;;;;;;;5.50;2.70;;;;;;;11.27;72.94;100298.83;126339;1099;104280;-82
2021/11/20 06:39:52;;;;;;;5.47;2.63;;;;;;;11.32;72.86;100299.84;126265;1099;104238;-82
2021/11/20 06:42:20;;;;;;;6.43;2.63;;;;;;;11.32;71.83;100311.23;126185;1099;104373;-83
2021/11/20 06:44:48;;;;;;;11.03;2.70;;;;;;;11.35;72.75;100296.42;126274;1099;104306;-83
2021/11/20 06:47:17;;;;;;;6.07;2.80;;;;;;;11.37;71.93;100292.98;126319;1099;104146;-82
2021/11/20 06:49:45;;;;;;;5.73;2.60;;;;;;;11.41;71.89;100294.86;126296;1099;104731;-83
2021/11/20 06:52:15;;;;;;;5.07;2.47;;;;;;;11.44;71.01;100294.95;126290;1099;104332;-83
2021/11/20 06:55:07;;;;;;;4.57;2.90;;;;;;;11.48;70.88;100291.58;126311;1099;104146;-83
2021/11/20 06:57:58;;;;;;;5.27;3.00;;;;;;;11.50;70.35;100295.13;126327;1099;104315;-83
2021/11/20 07:00:47;;;;;;;4.97;3.00;;;;;;;11.57;71.15;100297.93;126343;1099;104590;-83
2021/11/20 07:03:29;;;;;;;4.67;2.60;;;;;;;11.61;70.01;100305.03;126246;1099;109278;-82
2021/11/20 07:06:11;;;;;;;5.03;3.00;;;;;;;11.66;69.90;100311.33;126300;1098;104187;-83
2021/11/20 07:08:45;;;;;;;7.90;2.87;;;;;;;11.70;69.65;100315.80;126377;1099;104268;-82
2021/11/20 07:11:15;;;;;;;6.93;3.10;;;;;;;11.73;69.49;100312.38;126302;1098;104140;-83
2021/11/20 07:13:44;;;;;;;7.07;2.57;;;;;;;11.77;69.76;100303.75;126239;1099;104245;-81
2021/11/20 07:16:13;;;;;;;3.93;2.50;;;;;;;11.82;69.46;100305.64;126266;1099;104185;-82
2021/11/20 07:18:44;;;;;;;5.43;2.87;;;;;;;11.87;69.17;100303.13;126201;1098;104143;-82
2021/11/20 07:21:25;;;;;;;6.53;2.80;;;;;;;11.92;68.63;100312.09;126292;1099;104137;-83
2021/11/20 07:24:09;;;;;;;7.95;3.02;;;;;;;11.96;68.71;100307.80;126196;1098;107889;-83
2021/11/20 07:26:39;;;;;;;6.63;3.10;;;;;;;11.99;68.18;100318.40;126313;1099;104281;-82
2021/11/20 07:29:09;;;;;;;5.80;2.80;;;;;;;12.01;67.06;100317.60;126298;1099;104203;-84
2021/11/20 07:31:49;;;;;;;5.50;2.67;;;;;;;12.09;68.05;100303.74;126363;1099;104277;-84
2021/11/20 07:34:18;;;;;;;5.27;2.60;;;;;;;12.11;66.59;100331.00;126189;1099;104379;-82
2021/11/20 07:36:46;;;;;;;6.13;2.80;;;;;;;12.12;67.25;100316.98;126247;1099;103007;-83
2021/11/20 07:39:18;;;;;;;6.63;2.80;;;;;;;12.13;66.96;100327.54;126328;1099;104609;-82
2021/11/20 07:41:47;;;;;;;5.73;3.07;;;;;;;12.12;66.79;100309.97;126290;1099;104159;-82
2021/11/20 07:44:19;;;;;;;;;;;;;;;12.11;65.82;100334.51;126323;1099;104280;-82
2021/11/20 07:46:48;;;;;;;4.03;2.50;;;;;;;12.12;66.36;100322.23;126309;1099;104141;-83
2021/11/20 07:49:17;;;;;;;6.30;2.87;;;;;;;12.14;66.30;100334.59;126360;1099;103954;-82
2021/11/20 07:51:47;;;;;;;6.47;2.63;;;;;;;12.15;66.62;100325.83;126316;1099;104146;-83
2021/11/20 07:54:19;;;;;;;7.97;3.03;;;;;;;12.15;66.47;100315.30;126259;1099;104149;-83
2021/11/20 07:57:07;;;;;;;5.97;2.57;;;;;;;12.18;65.90;100323.28;126326;1099;104181;-82
2021/11/20 07:59:36;;;;;;;5.40;2.97;;;;;;;12.20;66.16;100313.71;126229;1099;104252;-84
2021/11/20 08:02:24;;;;;;;16.60;3.37;;;;;;;12.22;65.65;100322.52;126314;1099;104281;-81
2021/11/20 08:04:53;;;;;;;9.47;3.20;;;;;;;12.23;65.61;100316.42;126257;1098;105505;-83
2021/11/20 08:07:35;;;;;;;3.10;2.40;;;;;;;12.28;65.32;100323.52;126329;1099;104169;-83
2021/11/20 08:10:17;;;;;;;8.63;3.13;;;;;;;12.30;64.96;100327.11;126367;1099;104146;-83
2021/11/20 08:12:49;;;;;;;5.83;3.23;;;;;;;12.31;65.19;100332.41;126306;1099;104139;-82
2021/11/20 08:15:35;;;;;;;6.53;3.40;;;;;;;12.36;65.70;100340.42;126312;1099;107224;-83
2021/11/20 08:18:24;;;;;;;4.55;2.90;;;;;;;12.37;64.33;100344.81;126310;1099;104201;-83
2021/11/20 08:21:09;;;;;;;5.93;3.50;;;;;;;12.35;64.49;100349.16;126258;1099;104278;-83
2021/11/20 08:23:50;;;;;;;5.93;3.07;;;;;;;12.37;64.83;100344.81;126296;1099;104156;-82
2021/11/20 08:26:24;;;;;;;3.93;2.93;;;;;;;12.43;64.98;100337.08;126343;1097;104182;-84
2021/11/20 08:28:52;;;;;;;6.33;3.00;;;;;;;12.45;64.28;100348.55;126246;1097;104146;-82
2021/11/20 08:31:21;;;;;;;11.33;3.37;;;;;;;12.46;64.22;100337.16;126330;1099;104146;-84
2021/11/20 08:34:09;;;;;;;7.57;3.10;;;;;;;12.45;64.38;100338.03;126254;1099;104155;-83
2021/11/20 08:36:55;;;;;;;8.10;3.73;;;;;;;12.47;64.53;100328.42;126322;1099;104175;-82
2021/11/20 08:39:34;;;;;;;6.43;3.40;;;;;;;12.49;64.03;100312.66;126246;1099;104213;-83
2021/11/20 08:42:04;;;;;;;6.47;2.70;;;;;;;12.53;64.14;100331.20;126284;1098;104163;-82
2021/11/20 08:44:32;;;;;;;4.57;2.83;;;;;;;12.57;64.28;100326.90;126190;1099;102916;-83
2021/11/20 08:47:04;;;;;;;4.27;3.10;;;;;;;12.56;64.36;100322.51;126337;1099;104152;-83
2021/11/20 08:49:34;;;;;;;6.35;3.20;;;;;;;12.54;64.04;100339.98;126334;1099;104570;-82
2021/11/20 08:52:04;;;;;;;5.67;3.17;;;;;;;12.50;64.36;100327.62;126364;1099;104146;-83
2021/11/20 08:54:34;;;;;;;7.57;3.60;;;;;;;12.45;64.07;100323.95;125461;1099;104425;-82
2021/11/20 08:57:03;;;;;;;8.53;3.17;;;;;;;12.40;64.19;100324.75;126179;1099;104486;-82
2021/11/20 08:59:36;;;;;;;5.77;3.30;;;;;;;12.37;64.67;100331.66;125450;1099;104250;-82
2021/11/20 09:02:29;;;;;;;5.33;3.07;;;;;;;12.34;64.28;100328.95;126221;1099;104216;-83
2021/11/20 09:05:15;;;;;;;7.43;3.47;;;;;;;12.30;64.42;100330.61;125703;1099;104140;-82
2021/11/20 09:07:49;;;;;;;8.63;3.70;;;;;;;12.22;64.65;100319.89;125252;1099;104300;-82
2021/11/20 09:10:27;;;;;;;8.87;4.00;;;;;;;12.19;64.71;100337.34;125263;1102;104315;-83
2021/11/20 09:13:02;;;;;;;6.33;3.60;;;;;;;12.13;65.08;100338.06;125269;1102;104172;-83
2021/11/20 09:15:35;;;;;;;11.53;3.47;;;;;;;12.11;65.33;100323.99;125248;1102;104223;-83
2021/11/20 09:18:18;;;;;;;7.13;3.60;;;;;;;12.08;64.87;100316.02;125282;1102;104576;-82
2021/11/20 09:20:49;;;;;;;7.40;3.50;;;;;;;12.07;65.12;100315.98;125285;1102;104386;-82
2021/11/20 09:23:36;;;;;;;5.97;3.60;;;;;;;12.08;65.60;100300.23;125293;1102;104146;-83
2021/11/20 09:26:08;;;;;;;6.33;3.37;;;;;;;12.07;65.92;100297.56;125225;1102;104158;-82
2021/11/20 09:28:36;;;;;;;6.43;3.53;;;;;;;12.00;65.90;100320.19;125312;1102;104191;-83
2021/11/20 09:31:08;;;;;;;5.20;3.30;;;;;;;11.96;66.07;100308.67;125339;1102;104338;-83
2021/11/20 09:33:38;;;;;;;8.13;3.50;;;;;;;11.96;65.88;100302.54;125269;1099;104457;-83
2021/11/20 09:36:08;;;;;;;11.27;3.87;;;;;;;11.96;65.94;100292.90;125480;1099;104216;-83
2021/11/20 09:38:50;;;;;;;7.47;4.00;;;;;;;11.98;65.71;100290.31;126191;1099;104271;-84
2021/11/20 09:41:22;;;;;;;6.60;4.10;;;;;;;12.00;65.77;100278.12;125578;1099;104187;-83
2021/11/20 09:43:54;;;;;;;7.33;3.70;;;;;;;12.08;65.62;100276.56;126324;1099;104329;-82
2021/11/20 09:46:28;;;;;;;7.60;3.50;;;;;;;12.17;65.35;100287.33;126173;1099;104992;-84
2021/11/20 09:49:00;;;;;;;5.83;3.60;;;;;;;12.27;65.47;100272.66;126365;1099;104751;-83
2021/11/20 09:51:33;;;;;;;8.63;3.87;;;;;;;12.37;65.05;100271.14;126299;1099;104191;-83
2021/11/20 09:54:10;;;;;;;8.47;4.60;;;;;;;12.41;64.68;100267.73;126327;1099;104146;-82
2021/11/20 09:56:45;;;;;;;6.83;3.97;;;;;;;12.47;64.62;100244.20;126339;1099;104229;-83
2021/11/20 09:59:26;;;;;;;7.43;3.83;;;;;;;12.53;63.95;100254.00;126268;1099;104451;-82
2021/11/20 10:02:02;;;;;;;7.70;4.17;;;;;;;12.62;63.14;100263.84;126206;1099;104313;-81
2021/11/20 10:04:46;;;;;;;7.13;4.03;;;;;;;12.70;63.85;100254.37;126173;1099;104153;-82
2021/11/20 10:07:16;;;;;;;6.67;3.87;;;;;;;12.74;63.35;100258.86;126269;1099;104137;-83
2021/11/20 10:09:53;;;;;;;11.87;4.27;;;;;;;12.79;62.85;100246.68;126319;1099;104251;-83
2021/11/20 10:12:31;;;;;;;7.13;4.07;;;;;;;12.84;62.69;100242.43;126166;1099;104194;-83
2021/11/20 10:15:06;;;;;;;10.73;3.97;;;;;;;12.92;62.92;100221.53;126187;1099;104274;-83
2021/11/20 10:17:42;;;;;;;6.47;3.70;;;;;;;12.98;62.11;100224.30;125395;1099;104185;-82
2021/11/20 10:20:32;;;;;;;8.93;3.90;;;;;;;13.03;61.83;100225.28;125513;1099;104198;-82
2021/11/20 10:23:05;;;;;;;9.43;4.27;;;;;;;13.05;62.05;100233.21;126231;1099;104425;-82
2021/11/20 10:25:57;;;;;;;7.77;4.03;;;;;;;13.06;61.68;100230.61;126143;1099;104450;-83
2021/11/20 10:28:37;;;;;;;8.40;4.60;;;;;;;13.09;61.59;100224.53;125286;1099;104155;-83
2021/11/20 10:31:12;;;;;;;10.43;4.70;;;;;;;13.13;60.45;100223.72;125269;1099;104306;-84
2021/11/20 10:33:45;;;;;;;10.75;4.45;;;;;;;13.17;61.10;100219.42;125330;1099;104280;-83
2021/11/20 10:36:20;;;;;;;9.00;4.30;;;;;;;13.16;60.69;100212.36;125228;1102;104162;-82
2021/11/20 10:38:54;;;;;;;9.63;4.60;;;;;;;13.13;61.09;100210.55;126191;1099;104338;-83
2021/11/20 10:41:33;;;;;;;10.20;5.00;;;;;;;13.11;60.98;100202.61;126192;1099;104147;-83
2021/11/20 10:44:20;;;;;;;9.00;4.60;;;;;;;13.17;60.48;100225.57;126200;1099;104193;-83
2021/11/20 10:47:10;;;;;;;8.83;4.60;;;;;;;13.17;59.60;100217.67;126220;1099;104165;-82
2021/11/20 10:49:51;;;;;;;10.93;4.87;;;;;;;13.29;60.37;100203.83;125332;1099;104819;-82
2021/11/20 10:52:32;;;;;;;12.20;5.20;;;;;;;13.39;60.54;100199.69;125287;1099;104371;-84
2021/11/20 10:55:19;;;;;;;;;;;;;;;13.44;60.05;100200.66;125350;1100;104195;-83
2021/11/20 10:58:12;;;;;;;12.23;4.83;;;;;;;13.54;59.39;100207.89;125296;1099;105512;-83
2021/11/20 11:01:07;;;;;;;11.27;5.17;;;;;;;13.66;58.96;100223.95;125302;1099;104198;-83
2021/11/20 11:03:38;;;;;;;;;;;;;;;13.71;58.28;100196.75;125391;1099;104331;-82
2021/11/20 11:06:35;;;;;;;12.37;5.00;;;;;;;13.73;58.85;100208.20;125268;1099;104213;-83
2021/11/20 11:09:21;;;;;;;11.90;5.40;;;;;;;13.72;58.69;100204.69;125285;1102;104836;-82
2021/11/20 11:11:58;;;;;;;10.13;5.07;;;;;;;13.72;57.83;100198.54;125294;1098;104194;-83
2021/11/20 11:14:47;;;;;;;10.90;5.10;;;;;;;13.70;58.97;100197.60;125287;1099;104169;-83
2021/11/20 11:17:24;;;;;;;13.10;6.03;;;;;;;13.60;58.20;100205.38;125292;1099;104229;-82
2021/11/20 11:20:00;;;;;;;13.77;5.47;;;;;;;13.56;57.99;100203.53;125267;1102;104235;-82
2021/11/20 11:22:44;;;;;;;12.10;5.40;;;;;;;13.58;58.56;100207.06;125322;1102;104321;-83
2021/11/20 11:25:15;;;;;;;;;;;;;;;13.62;57.91;100205.41;125367;1099;104152;-84
2021/11/20 11:28:05;;;;;;;12.33;4.87;;;;;;;13.71;57.87;100196.75;125771;1099;104147;-83
2021/11/20 11:30:39;;;;;;;10.23;5.37;;;;;;;13.79;58.44;100189.86;126244;1099;104233;-83
2021/11/20 11:33:08;;;;;;;15.32;5.42;;;;;;;13.84;57.39;100196.13;126308;1099;104226;-82
2021/11/20 11:35:43;;;;;;;14.47;5.50;;;;;;;13.87;57.81;100169.80;126304;1099;104220;-83
2021/11/20 11:38:30;;;;;;;10.75;5.10;;;;;;;13.87;58.02;100175.08;126223;1099;104312;-83
2021/11/20 11:41:08;;;;;;;12.40;5.27;;;;;;;13.84;56.99;100183.81;126260;1099;104275;-84
2021/11/20 11:43:44;;;;;;;6.90;4.70;;;;;;;13.80;56.63;100194.28;126309;1099;104195;-83
2021/11/20 11:46:30;;;;;;;14.43;5.40;;;;;;;13.79;56.05;100181.94;126315;1099;104313;-82